Terminal Aerodrome Forecast
Issued by NWS Twin Cities, MN

Home | Current Version | Previous Version | Graphics & Text | Print | Product List | Glossary On
Versions: 1 2 3 4 5 6 7 8 9 10 11 12 13 14 15 16 17 18 19 20 21 22 23 24 25 26 27 28 29 30
000
FTUS43 KMPX 240232 AAA
TAFMSP
TAF AMD
KMSP 240232Z 2403/2506 28005KT P6SM FEW035
     FM240800 29007KT P6SM SCT050 SCT150
     FM242000 28005KT P6SM OVC020
     FM250400 06006KT 1 1/2SM -SN OVC012=

USA.gov is the U.S. government's official web portal to all federal, state and local government web resources and services.